sensor_id;sensor_type;location;lat;lon;timestamp;temperature;humidity
64652;HTU21D;51062;45.120;37.660;2023-09-12T00:00:50;12.77;63.82
64652;HTU21D;51062;45.120;37.660;2023-09-12T00:03:21;12.73;63.92
64652;HTU21D;51062;45.120;37.660;2023-09-12T00:05:54;12.74;63.94
64652;HTU21D;51062;45.120;37.660;2023-09-12T00:08:21;12.73;63.91
64652;HTU21D;51062;45.120;37.660;2023-09-12T00:10:47;12.73;63.92
64652;HTU21D;51062;45.120;37.660;2023-09-12T00:13:23;12.71;63.97
64652;HTU21D;51062;45.120;37.660;2023-09-12T00:15:49;12.70;64.01
64652;HTU21D;51062;45.120;37.660;2023-09-12T00:18:15;12.69;64.08
64652;HTU21D;51062;45.120;37.660;2023-09-12T00:20:41;12.66;64.11
64652;HTU21D;51062;45.120;37.660;2023-09-12T00:23:07;12.65;64.18
64652;HTU21D;51062;45.120;37.660;2023-09-12T00:25:34;12.62;64.24
64652;HTU21D;51062;45.120;37.660;2023-09-12T00:27:59;12.61;64.26
64652;HTU21D;51062;45.120;37.660;2023-09-12T00:30:26;12.58;64.31
64652;HTU21D;51062;45.120;37.660;2023-09-12T00:32:52;12.56;64.37
64652;HTU21D;51062;45.120;37.660;2023-09-12T00:35:18;12.55;64.40
64652;HTU21D;51062;45.120;37.660;2023-09-12T00:37:44;12.52;64.40
64652;HTU21D;51062;45.120;37.660;2023-09-12T00:40:10;12.51;64.45
64652;HTU21D;51062;45.120;37.660;2023-09-12T00:42:36;12.50;64.50
64652;HTU21D;51062;45.120;37.660;2023-09-12T00:45:03;12.50;64.49
64652;HTU21D;51062;45.120;37.660;2023-09-12T00:47:29;12.48;64.54
64652;HTU21D;51062;45.120;37.660;2023-09-12T00:49:56;12.48;64.56
64652;HTU21D;51062;45.120;37.660;2023-09-12T00:52:25;12.49;64.57
64652;HTU21D;51062;45.120;37.660;2023-09-12T00:54:52;12.48;64.56
64652;HTU21D;51062;45.120;37.660;2023-09-12T00:57:19;12.47;64.57
64652;HTU21D;51062;45.120;37.660;2023-09-12T00:59:47;12.47;64.59
64652;HTU21D;51062;45.120;37.660;2023-09-12T01:02:13;12.46;64.59
64652;HTU21D;51062;45.120;37.660;2023-09-12T01:04:40;12.44;64.66
64652;HTU21D;51062;45.120;37.660;2023-09-12T01:07:08;12.40;64.72
64652;HTU21D;51062;45.120;37.660;2023-09-12T01:09:34;12.36;64.76
64652;HTU21D;51062;45.120;37.660;2023-09-12T01:12:01;12.35;64.82
64652;HTU21D;51062;45.120;37.660;2023-09-12T01:14:30;12.35;64.85
64652;HTU21D;51062;45.120;37.660;2023-09-12T01:16:57;12.36;64.87
64652;HTU21D;51062;45.120;37.660;2023-09-12T01:19:24;12.35;64.89
64652;HTU21D;51062;45.120;37.660;2023-09-12T01:27:42;12.31;64.94
64652;HTU21D;51062;45.120;37.660;2023-09-12T01:30:12;12.30;64.94
64652;HTU21D;51062;45.120;37.660;2023-09-12T01:32:42;12.31;64.94
64652;HTU21D;51062;45.120;37.660;2023-09-12T01:35:08;12.32;64.95
64652;HTU21D;51062;45.120;37.660;2023-09-12T01:37:34;12.31;64.97
64652;HTU21D;51062;45.120;37.660;2023-09-12T01:40:01;12.32;65.00
64652;HTU21D;51062;45.120;37.660;2023-09-12T01:42:37;12.32;65.03
64652;HTU21D;51062;45.120;37.660;2023-09-12T01:45:04;12.31;65.02
64652;HTU21D;51062;45.120;37.660;2023-09-12T01:47:31;12.31;65.05
64652;HTU21D;51062;45.120;37.660;2023-09-12T01:50:00;12.30;65.08
64652;HTU21D;51062;45.120;37.660;2023-09-12T01:52:27;12.29;65.08
64652;HTU21D;51062;45.120;37.660;2023-09-12T01:54:55;12.26;65.11
64652;HTU21D;51062;45.120;37.660;2023-09-12T01:57:21;12.26;65.13
64652;HTU21D;51062;45.120;37.660;2023-09-12T01:59:49;12.23;65.14
64652;HTU21D;51062;45.120;37.660;2023-09-12T02:02:15;12.20;65.17
64652;HTU21D;51062;45.120;37.660;2023-09-12T02:05:09;12.18;65.21
64652;HTU21D;51062;45.120;37.660;2023-09-12T02:07:37;12.13;65.25
64652;HTU21D;51062;45.120;37.660;2023-09-12T02:10:04;12.10;65.27
64652;HTU21D;51062;45.120;37.660;2023-09-12T02:12:31;12.06;65.34
64652;HTU21D;51062;45.120;37.660;2023-09-12T02:14:57;12.02;65.40
64652;HTU21D;51062;45.120;37.660;2023-09-12T02:17:23;11.98;65.48
64652;HTU21D;51062;45.120;37.660;2023-09-12T02:19:49;11.94;65.53
64652;HTU21D;51062;45.120;37.660;2023-09-12T02:22:16;11.94;65.52
64652;HTU21D;51062;45.120;37.660;2023-09-12T02:24:42;11.92;65.53
64652;HTU21D;51062;45.120;37.660;2023-09-12T02:27:08;11.89;65.53
64652;HTU21D;51062;45.120;37.660;2023-09-12T02:29:34;11.87;65.56
64652;HTU21D;51062;45.120;37.660;2023-09-12T02:32:01;11.86;65.58
64652;HTU21D;51062;45.120;37.660;2023-09-12T02:34:27;11.85;65.58
64652;HTU21D;51062;45.120;37.660;2023-09-12T02:36:53;11.82;65.60
64652;HTU21D;51062;45.120;37.660;2023-09-12T02:39:19;11.79;65.61
64652;HTU21D;51062;45.120;37.660;2023-09-12T02:41:45;11.78;65.62
64652;HTU21D;51062;45.120;37.660;2023-09-12T02:44:11;11.74;65.65
64652;HTU21D;51062;45.120;37.660;2023-09-12T02:46:37;11.73;65.69
64652;HTU21D;51062;45.120;37.660;2023-09-12T02:49:03;11.74;65.72
64652;HTU21D;51062;45.120;37.660;2023-09-12T02:51:29;11.73;65.75
64652;HTU21D;51062;45.120;37.660;2023-09-12T02:53:56;11.73;65.75
64652;HTU21D;51062;45.120;37.660;2023-09-12T02:56:22;11.73;65.73
64652;HTU21D;51062;45.120;37.660;2023-09-12T02:58:49;11.72;65.76
64652;HTU21D;51062;45.120;37.660;2023-09-12T03:01:19;11.73;65.79
64652;HTU21D;51062;45.120;37.660;2023-09-12T03:03:46;11.75;65.78
64652;HTU21D;51062;45.120;37.660;2023-09-12T03:06:14;11.76;65.79
64652;HTU21D;51062;45.120;37.660;2023-09-12T03:08:42;11.75;65.80
64652;HTU21D;51062;45.120;37.660;2023-09-12T03:11:09;11.77;65.82
64652;HTU21D;51062;45.120;37.660;2023-09-12T03:13:37;11.82;65.93
64652;HTU21D;51062;45.120;37.660;2023-09-12T03:16:04;11.91;65.96
64652;HTU21D;51062;45.120;37.660;2023-09-12T03:18:30;12.04;66.00
64652;HTU21D;51062;45.120;37.660;2023-09-12T03:20:56;12.22;65.92
64652;HTU21D;51062;45.120;37.660;2023-09-12T03:23:22;12.46;65.85
64652;HTU21D;51062;45.120;37.660;2023-09-12T03:25:48;12.74;65.68
64652;HTU21D;51062;45.120;37.660;2023-09-12T03:28:15;13.05;65.46
64652;HTU21D;51062;45.120;37.660;2023-09-12T03:30:41;13.35;65.20
64652;HTU21D;51062;45.120;37.660;2023-09-12T03:33:08;13.65;64.98
64652;HTU21D;51062;45.120;37.660;2023-09-12T03:35:35;14.00;64.77
64652;HTU21D;51062;45.120;37.660;2023-09-12T03:38:01;14.35;64.78
64652;HTU21D;51062;45.120;37.660;2023-09-12T03:40:29;14.71;64.84
64652;HTU21D;51062;45.120;37.660;2023-09-12T03:42:56;15.12;64.67
64652;HTU21D;51062;45.120;37.660;2023-09-12T03:45:23;15.54;64.53
64652;HTU21D;51062;45.120;37.660;2023-09-12T03:47:50;15.91;64.45
64652;HTU21D;51062;45.120;37.660;2023-09-12T03:50:17;16.30;64.40
64652;HTU21D;51062;45.120;37.660;2023-09-12T03:52:43;16.66;64.31
64652;HTU21D;51062;45.120;37.660;2023-09-12T03:55:09;17.05;64.18
64652;HTU21D;51062;45.120;37.660;2023-09-12T03:57:35;17.47;63.97
64652;HTU21D;51062;45.120;37.660;2023-09-12T04:00:02;17.88;63.74
64652;HTU21D;51062;45.120;37.660;2023-09-12T04:02:39;18.30;63.43
64652;HTU21D;51062;45.120;37.660;2023-09-12T04:05:06;18.69;63.12
64652;HTU21D;51062;45.120;37.660;2023-09-12T04:07:32;19.02;62.79
64652;HTU21D;51062;45.120;37.660;2023-09-12T04:09:59;19.38;62.43
64652;HTU21D;51062;45.120;37.660;2023-09-12T04:12:25;19.79;61.92
64652;HTU21D;51062;45.120;37.660;2023-09-12T04:14:52;20.13;61.57
64652;HTU21D;51062;45.120;37.660;2023-09-12T04:17:18;20.45;61.27
64652;HTU21D;51062;45.120;37.660;2023-09-12T04:19:44;20.75;60.87
64652;HTU21D;51062;45.120;37.660;2023-09-12T04:22:11;20.99;60.49
64652;HTU21D;51062;45.120;37.660;2023-09-12T04:24:37;21.18;60.15
64652;HTU21D;51062;45.120;37.660;2023-09-12T04:27:03;21.33;59.93
64652;HTU21D;51062;45.120;37.660;2023-09-12T04:29:32;21.52;59.66
64652;HTU21D;51062;45.120;37.660;2023-09-12T04:31:59;21.76;59.38
64652;HTU21D;51062;45.120;37.660;2023-09-12T04:34:26;22.06;59.00
64652;HTU21D;51062;45.120;37.660;2023-09-12T04:36:53;22.40;58.51
64652;HTU21D;51062;45.120;37.660;2023-09-12T04:39:20;22.80;58.00
64652;HTU21D;51062;45.120;37.660;2023-09-12T04:41:46;23.20;57.43
64652;HTU21D;51062;45.120;37.660;2023-09-12T04:44:12;23.66;56.67
64652;HTU21D;51062;45.120;37.660;2023-09-12T04:46:39;24.15;55.84
64652;HTU21D;51062;45.120;37.660;2023-09-12T04:49:05;24.60;55.02
64652;HTU21D;51062;45.120;37.660;2023-09-12T04:51:31;24.93;54.44
64652;HTU21D;51062;45.120;37.660;2023-09-12T04:53:57;25.09;54.01
64652;HTU21D;51062;45.120;37.660;2023-09-12T04:56:24;25.21;53.78
64652;HTU21D;51062;45.120;37.660;2023-09-12T04:58:50;25.29;53.36
64652;HTU21D;51062;45.120;37.660;2023-09-12T05:01:16;25.36;53.05
64652;HTU21D;51062;45.120;37.660;2023-09-12T05:03:43;25.49;52.72
64652;HTU21D;51062;45.120;37.660;2023-09-12T05:06:13;25.69;52.22
64652;HTU21D;51062;45.120;37.660;2023-09-12T05:08:40;25.88;51.53
64652;HTU21D;51062;45.120;37.660;2023-09-12T05:11:06;25.90;51.25
64652;HTU21D;51062;45.120;37.660;2023-09-12T05:13:32;25.98;51.06
64652;HTU21D;51062;45.120;37.660;2023-09-12T05:15:59;26.09;50.58
64652;HTU21D;51062;45.120;37.660;2023-09-12T05:18:26;26.25;50.11
64652;HTU21D;51062;45.120;37.660;2023-09-12T05:20:52;26.43;49.79
64652;HTU21D;51062;45.120;37.660;2023-09-12T05:23:18;26.58;49.36
64652;HTU21D;51062;45.120;37.660;2023-09-12T05:25:44;26.80;49.03
64652;HTU21D;51062;45.120;37.660;2023-09-12T05:28:11;27.07;48.49
64652;HTU21D;51062;45.120;37.660;2023-09-12T05:30:43;27.15;47.68
64652;HTU21D;51062;45.120;37.660;2023-09-12T05:33:09;27.24;47.46
64652;HTU21D;51062;45.120;37.660;2023-09-12T05:35:36;27.47;46.86
64652;HTU21D;51062;45.120;37.660;2023-09-12T05:38:03;27.63;46.53
64652;HTU21D;51062;45.120;37.660;2023-09-12T05:40:29;27.73;46.30
64652;HTU21D;51062;45.120;37.660;2023-09-12T05:42:55;27.94;46.00
64652;HTU21D;51062;45.120;37.660;2023-09-12T05:45:21;28.04;45.47
64652;HTU21D;51062;45.120;37.660;2023-09-12T05:47:48;27.97;45.41
64652;HTU21D;51062;45.120;37.660;2023-09-12T05:50:14;28.00;45.24
64652;HTU21D;51062;45.120;37.660;2023-09-12T05:52:40;28.14;44.90
64652;HTU21D;51062;45.120;37.660;2023-09-12T05:55:09;28.47;44.28
64652;HTU21D;51062;45.120;37.660;2023-09-12T05:57:35;28.61;44.03
64652;HTU21D;51062;45.120;37.660;2023-09-12T06:00:01;28.74;43.80
64652;HTU21D;51062;45.120;37.660;2023-09-12T06:02:38;29.01;43.48
64652;HTU21D;51062;45.120;37.660;2023-09-12T06:05:04;29.24;43.00
64652;HTU21D;51062;45.120;37.660;2023-09-12T06:07:32;29.41;42.78
64652;HTU21D;51062;45.120;37.660;2023-09-12T06:09:58;29.44;42.52
64652;HTU21D;51062;45.120;37.660;2023-09-12T06:12:24;29.45;42.19
64652;HTU21D;51062;45.120;37.660;2023-09-12T06:14:51;29.35;41.90
64652;HTU21D;51062;45.120;37.660;2023-09-12T06:17:19;29.39;41.78
64652;HTU21D;51062;45.120;37.660;2023-09-12T06:19:44;29.63;41.36
64652;HTU21D;51062;45.120;37.660;2023-09-12T06:22:11;29.68;40.92
64652;HTU21D;51062;45.120;37.660;2023-09-12T06:24:37;29.56;40.89
64652;HTU21D;51062;45.120;37.660;2023-09-12T06:27:04;29.61;40.67
64652;HTU21D;51062;45.120;37.660;2023-09-12T06:29:31;29.67;40.52
64652;HTU21D;51062;45.120;37.660;2023-09-12T06:31:57;29.85;40.32
64652;HTU21D;51062;45.120;37.660;2023-09-12T06:34:23;29.96;40.07
64652;HTU21D;51062;45.120;37.660;2023-09-12T06:36:49;30.10;39.68
64652;HTU21D;51062;45.120;37.660;2023-09-12T06:39:15;30.20;39.48
64652;HTU21D;51062;45.120;37.660;2023-09-12T06:41:41;30.28;39.10
64652;HTU21D;51062;45.120;37.660;2023-09-12T06:44:07;30.27;39.14
64652;HTU21D;51062;45.120;37.660;2023-09-12T06:46:33;30.37;38.93
64652;HTU21D;51062;45.120;37.660;2023-09-12T06:49:03;30.39;38.59
64652;HTU21D;51062;45.120;37.660;2023-09-12T06:51:29;30.51;38.56
64652;HTU21D;51062;45.120;37.660;2023-09-12T06:53:55;30.63;38.20
64652;HTU21D;51062;45.120;37.660;2023-09-12T06:56:22;30.63;37.89
64652;HTU21D;51062;45.120;37.660;2023-09-12T06:58:48;30.61;37.64
64652;HTU21D;51062;45.120;37.660;2023-09-12T07:01:14;30.37;37.39
64652;HTU21D;51062;45.120;37.660;2023-09-12T07:03:40;30.23;37.66
64652;HTU21D;51062;45.120;37.660;2023-09-12T07:06:06;30.34;37.45
64652;HTU21D;51062;45.120;37.660;2023-09-12T07:08:33;30.44;37.29
64652;HTU21D;51062;45.120;37.660;2023-09-12T07:10:59;30.46;37.01
64652;HTU21D;51062;45.120;37.660;2023-09-12T07:13:32;30.49;36.93
64652;HTU21D;51062;45.120;37.660;2023-09-12T07:15:59;30.64;36.78
64652;HTU21D;51062;45.120;37.660;2023-09-12T07:18:25;30.63;36.54
64652;HTU21D;51062;45.120;37.660;2023-09-12T07:20:58;30.66;36.54
64652;HTU21D;51062;45.120;37.660;2023-09-12T07:23:24;30.78;36.19
64652;HTU21D;51062;45.120;37.660;2023-09-12T07:25:50;30.82;35.97
64652;HTU21D;51062;45.120;37.660;2023-09-12T07:28:17;30.65;36.06
64652;HTU21D;51062;45.120;37.660;2023-09-12T07:30:46;30.52;36.37
64652;HTU21D;51062;45.120;37.660;2023-09-12T07:33:12;30.69;36.21
64652;HTU21D;51062;45.120;37.660;2023-09-12T07:35:38;30.79;35.95
64652;HTU21D;51062;45.120;37.660;2023-09-12T07:38:04;30.60;35.98
64652;HTU21D;51062;45.120;37.660;2023-09-12T07:40:30;30.54;36.11
64652;HTU21D;51062;45.120;37.660;2023-09-12T07:42:57;30.56;35.90
64652;HTU21D;51062;45.120;37.660;2023-09-12T07:45:23;30.45;36.02
64652;HTU21D;51062;45.120;37.660;2023-09-12T07:47:49;30.52;35.98
64652;HTU21D;51062;45.120;37.660;2023-09-12T07:50:16;30.54;35.84
64652;HTU21D;51062;45.120;37.660;2023-09-12T07:52:42;30.57;35.66
64652;HTU21D;51062;45.120;37.660;2023-09-12T07:55:08;30.61;35.53
64652;HTU21D;51062;45.120;37.660;2023-09-12T07:57:35;30.63;35.47
64652;HTU21D;51062;45.120;37.660;2023-09-12T08:00:03;30.52;35.30
64652;HTU21D;51062;45.120;37.660;2023-09-12T08:02:39;30.13;35.50
64652;HTU21D;51062;45.120;37.660;2023-09-12T08:05:05;29.75;35.66
64652;HTU21D;51062;45.120;37.660;2023-09-12T08:07:32;29.44;35.79
64652;HTU21D;51062;45.120;37.660;2023-09-12T08:09:58;29.22;36.01
64652;HTU21D;51062;45.120;37.660;2023-09-12T08:12:26;28.88;36.31
64652;HTU21D;51062;45.120;37.660;2023-09-12T08:14:52;28.45;36.66
64652;HTU21D;51062;45.120;37.660;2023-09-12T08:17:19;28.02;36.91
64652;HTU21D;51062;45.120;37.660;2023-09-12T08:19:45;27.61;37.30
64652;HTU21D;51062;45.120;37.660;2023-09-12T08:22:12;27.04;37.80
64652;HTU21D;51062;45.120;37.660;2023-09-12T08:24:38;26.70;38.42
64652;HTU21D;51062;45.120;37.660;2023-09-12T08:27:05;26.56;38.67
64652;HTU21D;51062;45.120;37.660;2023-09-12T08:29:32;26.48;38.78
64652;HTU21D;51062;45.120;37.660;2023-09-12T08:31:59;26.38;38.91
64652;HTU21D;51062;45.120;37.660;2023-09-12T08:34:25;26.33;38.98
64652;HTU21D;51062;45.120;37.660;2023-09-12T08:36:52;26.30;38.98
64652;HTU21D;51062;45.120;37.660;2023-09-12T08:39:23;26.26;39.17
64652;HTU21D;51062;45.120;37.660;2023-09-12T08:41:50;26.31;39.30
64652;HTU21D;51062;45.120;37.660;2023-09-12T08:44:17;26.35;39.01
64652;HTU21D;51062;45.120;37.660;2023-09-12T08:46:44;26.15;38.89
64652;HTU21D;51062;45.120;37.660;2023-09-12T08:49:11;25.99;39.14
64652;HTU21D;51062;45.120;37.660;2023-09-12T08:51:38;25.97;39.30
64652;HTU21D;51062;45.120;37.660;2023-09-12T08:54:06;25.99;39.39
64652;HTU21D;51062;45.120;37.660;2023-09-12T08:56:35;26.01;39.38
64652;HTU21D;51062;45.120;37.660;2023-09-12T08:59:02;25.91;39.34
64652;HTU21D;51062;45.120;37.660;2023-09-12T09:01:33;25.73;39.24
64652;HTU21D;51062;45.120;37.660;2023-09-12T09:04:02;25.50;39.23
64652;HTU21D;51062;45.120;37.660;2023-09-12T09:06:30;25.27;39.36
64652;HTU21D;51062;45.120;37.660;2023-09-12T09:08:58;25.07;39.62
64652;HTU21D;51062;45.120;37.660;2023-09-12T09:11:25;24.89;39.79
64652;HTU21D;51062;45.120;37.660;2023-09-12T09:13:54;24.73;39.93
64652;HTU21D;51062;45.120;37.660;2023-09-12T09:16:21;24.66;40.10
64652;HTU21D;51062;45.120;37.660;2023-09-12T09:19:03;24.80;40.17
64652;HTU21D;51062;45.120;37.660;2023-09-12T09:21:36;25.03;40.17
64652;HTU21D;51062;45.120;37.660;2023-09-12T09:24:10;25.29;40.15
64652;HTU21D;51062;45.120;37.660;2023-09-12T09:26:44;25.39;39.81
64652;HTU21D;51062;45.120;37.660;2023-09-12T09:29:15;25.30;39.68
64652;HTU21D;51062;45.120;37.660;2023-09-12T09:31:43;25.12;39.80
64652;HTU21D;51062;45.120;37.660;2023-09-12T09:34:22;25.08;40.10
64652;HTU21D;51062;45.120;37.660;2023-09-12T09:36:51;25.18;40.26
64652;HTU21D;51062;45.120;37.660;2023-09-12T09:39:22;25.35;40.26
64652;HTU21D;51062;45.120;37.660;2023-09-12T09:41:50;25.56;40.23
64652;HTU21D;51062;45.120;37.660;2023-09-12T09:44:17;25.65;40.12
64652;HTU21D;51062;45.120;37.660;2023-09-12T09:46:44;25.75;39.87
64652;HTU21D;51062;45.120;37.660;2023-09-12T09:49:11;25.79;39.57
64652;HTU21D;51062;45.120;37.660;2023-09-12T09:51:41;25.77;39.27
64652;HTU21D;51062;45.120;37.660;2023-09-12T09:54:09;25.77;39.36
64652;HTU21D;51062;45.120;37.660;2023-09-12T09:56:49;25.82;39.56
64652;HTU21D;51062;45.120;37.660;2023-09-12T09:59:20;25.96;39.49
64652;HTU21D;51062;45.120;37.660;2023-09-12T10:01:48;26.10;39.46
64652;HTU21D;51062;45.120;37.660;2023-09-12T10:04:15;26.26;39.40
64652;HTU21D;51062;45.120;37.660;2023-09-12T10:06:45;26.40;39.20
64652;HTU21D;51062;45.120;37.660;2023-09-12T10:09:13;26.41;39.05
64652;HTU21D;51062;45.120;37.660;2023-09-12T10:11:41;26.42;39.23
64652;HTU21D;51062;45.120;37.660;2023-09-12T10:14:08;26.42;39.04
64652;HTU21D;51062;45.120;37.660;2023-09-12T10:16:39;26.31;39.07
64652;HTU21D;51062;45.120;37.660;2023-09-12T10:19:31;26.15;39.19
64652;HTU21D;51062;45.120;37.660;2023-09-12T10:22:12;25.91;39.41
64652;HTU21D;51062;45.120;37.660;2023-09-12T10:24:42;25.80;39.64
64652;HTU21D;51062;45.120;37.660;2023-09-12T10:27:09;25.82;39.80
64652;HTU21D;51062;45.120;37.660;2023-09-12T10:29:37;25.92;39.81
64652;HTU21D;51062;45.120;37.660;2023-09-12T10:32:03;26.04;39.68
64652;HTU21D;51062;45.120;37.660;2023-09-12T10:34:31;26.09;39.64
64652;HTU21D;51062;45.120;37.660;2023-09-12T10:36:58;26.13;39.63
64652;HTU21D;51062;45.120;37.660;2023-09-12T10:39:32;26.09;39.61
64652;HTU21D;51062;45.120;37.660;2023-09-12T10:41:59;26.11;39.62
64652;HTU21D;51062;45.120;37.660;2023-09-12T10:44:25;26.19;39.59
64652;HTU21D;51062;45.120;37.660;2023-09-12T10:46:52;26.23;39.55
64652;HTU21D;51062;45.120;37.660;2023-09-12T10:49:22;26.17;39.48
64652;HTU21D;51062;45.120;37.660;2023-09-12T10:52:09;25.96;39.52
64652;HTU21D;51062;45.120;37.660;2023-09-12T10:54:44;25.73;39.65
64652;HTU21D;51062;45.120;37.660;2023-09-12T10:57:11;25.49;39.89
64652;HTU21D;51062;45.120;37.660;2023-09-12T11:02:40;24.97;40.68
64652;HTU21D;51062;45.120;37.660;2023-09-12T11:05:35;24.76;40.97
64652;HTU21D;51062;45.120;37.660;2023-09-12T11:07:58;24.51;41.35
64652;HTU21D;51062;45.120;37.660;2023-09-12T11:10:24;24.35;41.59
64652;HTU21D;51062;45.120;37.660;2023-09-12T11:12:55;24.21;41.77
64652;HTU21D;51062;45.120;37.660;2023-09-12T11:15:25;24.14;41.90
64652;HTU21D;51062;45.120;37.660;2023-09-12T11:18:04;24.13;42.07
64652;HTU21D;51062;45.120;37.660;2023-09-12T11:20:59;24.13;42.16
64652;HTU21D;51062;45.120;37.660;2023-09-12T11:23:29;24.16;42.25
64652;HTU21D;51062;45.120;37.660;2023-09-12T11:26:07;24.15;42.32
64652;HTU21D;51062;45.120;37.660;2023-09-12T11:28:33;24.15;42.36
64652;HTU21D;51062;45.120;37.660;2023-09-12T11:30:59;24.16;42.41
64652;HTU21D;51062;45.120;37.660;2023-09-12T11:33:26;24.16;42.51
64652;HTU21D;51062;45.120;37.660;2023-09-12T11:35:55;24.19;42.55
64652;HTU21D;51062;45.120;37.660;2023-09-12T11:38:27;24.20;42.45
64652;HTU21D;51062;45.120;37.660;2023-09-12T11:40:55;24.18;42.40
64652;HTU21D;51062;45.120;37.660;2023-09-12T11:43:23;24.14;42.44
64652;HTU21D;51062;45.120;37.660;2023-09-12T11:45:50;24.05;42.41
64652;HTU21D;51062;45.120;37.660;2023-09-12T11:48:18;23.96;42.48
64652;HTU21D;51062;45.120;37.660;2023-09-12T11:50:58;23.92;42.55
64652;HTU21D;51062;45.120;37.660;2023-09-12T11:53:27;23.89;42.61
64652;HTU21D;51062;45.120;37.660;2023-09-12T11:55:58;23.97;42.71
64652;HTU21D;51062;45.120;37.660;2023-09-12T11:58:25;23.99;42.68
64652;HTU21D;51062;45.120;37.660;2023-09-12T12:00:57;23.99;42.70
64652;HTU21D;51062;45.120;37.660;2023-09-12T12:03:26;24.00;42.82
64652;HTU21D;51062;45.120;37.660;2023-09-12T12:05:54;24.13;42.87
64652;HTU21D;51062;45.120;37.660;2023-09-12T12:08:21;24.27;42.90
64652;HTU21D;51062;45.120;37.660;2023-09-12T12:10:51;24.41;42.81
64652;HTU21D;51062;45.120;37.660;2023-09-12T12:13:21;24.42;42.70
64652;HTU21D;51062;45.120;37.660;2023-09-12T12:15:47;24.35;42.74
64652;HTU21D;51062;45.120;37.660;2023-09-12T12:18:13;24.28;42.84
64652;HTU21D;51062;45.120;37.660;2023-09-12T12:20:40;24.19;42.90
64652;HTU21D;51062;45.120;37.660;2023-09-12T12:23:06;24.10;42.97
64652;HTU21D;51062;45.120;37.660;2023-09-12T12:25:33;24.00;43.02
64652;HTU21D;51062;45.120;37.660;2023-09-12T12:28:03;23.96;43.13
64652;HTU21D;51062;45.120;37.660;2023-09-12T12:30:34;23.96;43.19
64652;HTU21D;51062;45.120;37.660;2023-09-12T12:33:10;23.98;43.23
64652;HTU21D;51062;45.120;37.660;2023-09-12T12:35:36;23.99;43.22
64652;HTU21D;51062;45.120;37.660;2023-09-12T12:38:02;24.01;43.15
64652;HTU21D;51062;45.120;37.660;2023-09-12T12:40:29;24.00;43.15
64652;HTU21D;51062;45.120;37.660;2023-09-12T12:42:55;23.98;43.13
64652;HTU21D;51062;45.120;37.660;2023-09-12T12:45:22;23.94;43.22
64652;HTU21D;51062;45.120;37.660;2023-09-12T12:47:59;23.88;43.32
64652;HTU21D;51062;45.120;37.660;2023-09-12T12:50:26;23.86;43.42
64652;HTU21D;51062;45.120;37.660;2023-09-12T12:52:53;23.88;43.59
64652;HTU21D;51062;45.120;37.660;2023-09-12T12:55:21;23.96;43.64
64652;HTU21D;51062;45.120;37.660;2023-09-12T12:57:51;24.02;43.62
64652;HTU21D;51062;45.120;37.660;2023-09-12T13:00:18;24.05;43.62
64652;HTU21D;51062;45.120;37.660;2023-09-12T13:02:45;24.08;43.60
64652;HTU21D;51062;45.120;37.660;2023-09-12T13:05:28;24.08;43.57
64652;HTU21D;51062;45.120;37.660;2023-09-12T13:07:55;24.06;43.49
64652;HTU21D;51062;45.120;37.660;2023-09-12T13:10:22;24.03;43.40
64652;HTU21D;51062;45.120;37.660;2023-09-12T13:12:48;24.01;43.32
64652;HTU21D;51062;45.120;37.660;2023-09-12T13:15:16;23.98;43.18
64652;HTU21D;51062;45.120;37.660;2023-09-12T13:17:43;23.94;43.16
64652;HTU21D;51062;45.120;37.660;2023-09-12T13:20:10;23.89;43.14
64652;HTU21D;51062;45.120;37.660;2023-09-12T13:22:37;23.85;43.12
64652;HTU21D;51062;45.120;37.660;2023-09-12T13:25:04;23.83;43.11
64652;HTU21D;51062;45.120;37.660;2023-09-12T13:27:30;23.77;43.03
64652;HTU21D;51062;45.120;37.660;2023-09-12T13:29:56;23.72;43.00
64652;HTU21D;51062;45.120;37.660;2023-09-12T13:32:22;23.70;43.00
64652;HTU21D;51062;45.120;37.660;2023-09-12T13:34:48;23.70;43.01
64652;HTU21D;51062;45.120;37.660;2023-09-12T13:37:16;23.72;42.99
64652;HTU21D;51062;45.120;37.660;2023-09-12T13:39:42;23.74;43.02
64652;HTU21D;51062;45.120;37.660;2023-09-12T13:42:16;23.74;43.04
64652;HTU21D;51062;45.120;37.660;2023-09-12T13:44:46;23.76;43.11
64652;HTU21D;51062;45.120;37.660;2023-09-12T13:47:12;23.75;43.14
64652;HTU21D;51062;45.120;37.660;2023-09-12T13:49:39;23.79;43.20
64652;HTU21D;51062;45.120;37.660;2023-09-12T13:52:06;23.83;43.21
64652;HTU21D;51062;45.120;37.660;2023-09-12T13:54:32;23.86;43.20
64652;HTU21D;51062;45.120;37.660;2023-09-12T13:56:58;23.88;43.19
64652;HTU21D;51062;45.120;37.660;2023-09-12T13:59:24;23.87;43.15
64652;HTU21D;51062;45.120;37.660;2023-09-12T14:01:51;23.85;43.16
64652;HTU21D;51062;45.120;37.660;2023-09-12T14:04:18;23.81;43.16
64652;HTU21D;51062;45.120;37.660;2023-09-12T14:06:44;23.75;43.20
64652;HTU21D;51062;45.120;37.660;2023-09-12T14:09:10;23.69;43.23
64652;HTU21D;51062;45.120;37.660;2023-09-12T14:11:36;23.60;43.27
64652;HTU21D;51062;45.120;37.660;2023-09-12T14:14:04;23.53;43.32
64652;HTU21D;51062;45.120;37.660;2023-09-12T14:16:30;23.47;43.38
64652;HTU21D;51062;45.120;37.660;2023-09-12T14:18:56;23.39;43.42
64652;HTU21D;51062;45.120;37.660;2023-09-12T14:21:22;23.32;43.48
64652;HTU21D;51062;45.120;37.660;2023-09-12T14:23:48;23.27;43.58
64652;HTU21D;51062;45.120;37.660;2023-09-12T14:26:15;23.21;43.63
64652;HTU21D;51062;45.120;37.660;2023-09-12T14:28:42;23.15;43.67
64652;HTU21D;51062;45.120;37.660;2023-09-12T14:31:07;23.09;43.74
64652;HTU21D;51062;45.120;37.660;2023-09-12T14:33:40;23.03;43.80
64652;HTU21D;51062;45.120;37.660;2023-09-12T14:36:08;22.98;43.86
64652;HTU21D;51062;45.120;37.660;2023-09-12T14:38:35;22.90;43.90
64652;HTU21D;51062;45.120;37.660;2023-09-12T14:41:01;22.81;43.94
64652;HTU21D;51062;45.120;37.660;2023-09-12T14:43:28;22.73;43.99
64652;HTU21D;51062;45.120;37.660;2023-09-12T14:45:54;22.66;44.06
64652;HTU21D;51062;45.120;37.660;2023-09-12T14:48:21;22.57;44.13
64652;HTU21D;51062;45.120;37.660;2023-09-12T14:50:47;22.49;44.21
64652;HTU21D;51062;45.120;37.660;2023-09-12T14:53:16;22.38;44.30
64652;HTU21D;51062;45.120;37.660;2023-09-12T14:55:42;22.29;44.42
64652;HTU21D;51062;45.120;37.660;2023-09-12T14:58:09;22.19;44.54
64652;HTU21D;51062;45.120;37.660;2023-09-12T15:00:35;22.08;44.70
64652;HTU21D;51062;45.120;37.660;2023-09-12T15:03:02;21.97;44.87
64652;HTU21D;51062;45.120;37.660;2023-09-12T15:05:28;21.88;45.02
64652;HTU21D;51062;45.120;37.660;2023-09-12T15:07:55;21.76;45.19
64652;HTU21D;51062;45.120;37.660;2023-09-12T15:10:21;21.67;45.37
64652;HTU21D;51062;45.120;37.660;2023-09-12T15:12:47;21.58;45.55
64652;HTU21D;51062;45.120;37.660;2023-09-12T15:15:13;21.48;45.70